Colliers, South Carolina
Current Conditions -  °F | °C
As of 8:53 AM on Friday 28 Nov 2014 (Local Time) from KDNL Reporting Station
Clear Clear  
Wind Chill: 32°   Ceiling: Unl
Heat Index: 37°   Visibility: 10mi
Dew Point: 24°   Wind: 7mph
Humidity: 59%   Direction: 350°N
Pressure: 30.42"   Gusts: NA
Location:  33.727°N, 82.1937°W
Report Text: KDNL 281353Z AUTO 35006KT 10SM CLR 03/M04 A3042 RMK AO2 SLP303 T00281044
Loading
Personal Weather Stations






























Interactive Weather Map New forecast layout! Learn more

10-Day Weather Forecast

Advertisements
Track Severe Weather on mobile